sensor_id;sensor_type;location;lat;lon;timestamp;pressure;altitude;pressure_sealevel;temperature;humidity
21824;BME280;11074;48.596;9.238;2023-09-19T00:00:22;97876.16;;;19.59;90.35
21824;BME280;11074;48.596;9.238;2023-09-19T00:02:58;97884.47;;;19.62;90.29
21824;BME280;11074;48.596;9.238;2023-09-19T00:05:26;97877.59;;;19.65;89.95
21824;BME280;11074;48.596;9.238;2023-09-19T00:07:54;97878.25;;;19.62;89.57
21824;BME280;11074;48.596;9.238;2023-09-19T00:10:27;97884.59;;;19.40;89.80
21824;BME280;11074;48.596;9.238;2023-09-19T00:12:57;97882.25;;;19.56;90.22
21824;BME280;11074;48.596;9.238;2023-09-19T00:15:26;97882.72;;;19.58;90.28
21824;BME280;11074;48.596;9.238;2023-09-19T00:17:55;97876.16;;;19.59;89.98
21824;BME280;11074;48.596;9.238;2023-09-19T00:20:21;97879.53;;;19.56;89.62
21824;BME280;11074;48.596;9.238;2023-09-19T00:22:50;97871.81;;;19.41;90.13
21824;BME280;11074;48.596;9.238;2023-09-19T00:25:22;97872.44;;;19.29;91.16
21824;BME280;11074;48.596;9.238;2023-09-19T00:27:48;97881.09;;;19.00;91.18
21824;BME280;11074;48.596;9.238;2023-09-19T00:30:15;97888.25;;;18.96;91.99
21824;BME280;11074;48.596;9.238;2023-09-19T00:32:46;97891.09;;;18.91;92.70
21824;BME280;11074;48.596;9.238;2023-09-19T00:35:14;97898.19;;;19.09;92.55
21824;BME280;11074;48.596;9.238;2023-09-19T00:37:41;97875.00;;;19.34;91.71
21824;BME280;11074;48.596;9.238;2023-09-19T00:40:09;97877.91;;;19.46;90.61
21824;BME280;11074;48.596;9.238;2023-09-19T00:42:42;97888.59;;;19.43;90.48
21824;BME280;11074;48.596;9.238;2023-09-19T00:45:09;97883.13;;;19.34;90.19
21824;BME280;11074;48.596;9.238;2023-09-19T00:47:48;97889.41;;;19.04;91.84
21824;BME280;11074;48.596;9.238;2023-09-19T00:50:19;97873.84;;;19.26;90.62
21824;BME280;11074;48.596;9.238;2023-09-19T00:52:47;97860.19;;;19.40;91.17
21824;BME280;11074;48.596;9.238;2023-09-19T00:55:16;97870.72;;;19.42;90.41
21824;BME280;11074;48.596;9.238;2023-09-19T00:57:45;97873.47;;;19.50;90.38
21824;BME280;11074;48.596;9.238;2023-09-19T01:00:13;97883.81;;;19.48;89.26
21824;BME280;11074;48.596;9.238;2023-09-19T01:02:42;97879.16;;;19.40;89.66
21824;BME280;11074;48.596;9.238;2023-09-19T01:05:09;97882.00;;;19.35;89.43
21824;BME280;11074;48.596;9.238;2023-09-19T01:07:36;97888.31;;;19.61;89.90
21824;BME280;11074;48.596;9.238;2023-09-19T01:10:08;97880.19;;;19.61;89.15
21824;BME280;11074;48.596;9.238;2023-09-19T01:16:15;97886.72;;;19.60;88.36
21824;BME280;11074;48.596;9.238;2023-09-19T01:19:12;97895.28;;;19.54;87.84
21824;BME280;11074;48.596;9.238;2023-09-19T01:22:26;97886.22;;;19.58;88.39
21824;BME280;11074;48.596;9.238;2023-09-19T01:25:31;97896.22;;;19.41;88.79
21824;BME280;11074;48.596;9.238;2023-09-19T01:28:31;97901.69;;;19.49;89.12
21824;BME280;11074;48.596;9.238;2023-09-19T01:31:03;97889.25;;;19.57;89.03
21824;BME280;11074;48.596;9.238;2023-09-19T01:34:02;97896.75;;;19.60;89.07
21824;BME280;11074;48.596;9.238;2023-09-19T01:36:36;97898.00;;;19.54;88.85
21824;BME280;11074;48.596;9.238;2023-09-19T01:39:07;97898.47;;;19.39;88.38
21824;BME280;11074;48.596;9.238;2023-09-19T01:41:58;97898.84;;;19.15;89.53
21824;BME280;11074;48.596;9.238;2023-09-19T01:45:31;97906.78;;;19.03;90.58
21824;BME280;11074;48.596;9.238;2023-09-19T01:51:14;97909.75;;;19.32;89.88
21824;BME280;11074;48.596;9.238;2023-09-19T01:53:58;97927.84;;;19.14;90.59
21824;BME280;11074;48.596;9.238;2023-09-19T01:57:06;97932.72;;;19.34;90.81
21824;BME280;11074;48.596;9.238;2023-09-19T01:59:43;97929.56;;;19.41;89.66
21824;BME280;11074;48.596;9.238;2023-09-19T02:02:10;97930.56;;;19.45;89.82
21824;BME280;11074;48.596;9.238;2023-09-19T02:04:37;97937.53;;;19.38;89.45
21824;BME280;11074;48.596;9.238;2023-09-19T02:07:03;97938.78;;;19.31;89.85
21824;BME280;11074;48.596;9.238;2023-09-19T02:09:31;97938.41;;;19.24;89.68
21824;BME280;11074;48.596;9.238;2023-09-19T02:12:01;97943.16;;;19.19;90.07
21824;BME280;11074;48.596;9.238;2023-09-19T02:14:29;97948.44;;;19.15;89.27
21824;BME280;11074;48.596;9.238;2023-09-19T02:16:55;97950.81;;;19.17;90.95
21824;BME280;11074;48.596;9.238;2023-09-19T02:19:22;97952.75;;;19.25;91.00
21824;BME280;11074;48.596;9.238;2023-09-19T02:21:47;97944.34;;;19.26;90.08
21824;BME280;11074;48.596;9.238;2023-09-19T02:24:14;97960.13;;;19.33;90.54
21824;BME280;11074;48.596;9.238;2023-09-19T02:26:41;97956.50;;;19.38;90.28
21824;BME280;11074;48.596;9.238;2023-09-19T02:29:06;97953.75;;;19.29;89.89
21824;BME280;11074;48.596;9.238;2023-09-19T02:31:32;97953.06;;;19.15;89.70
21824;BME280;11074;48.596;9.238;2023-09-19T02:33:58;97965.38;;;19.29;90.66
21824;BME280;11074;48.596;9.238;2023-09-19T02:36:26;97953.53;;;19.17;90.30
21824;BME280;11074;48.596;9.238;2023-09-19T02:38:51;97958.69;;;18.96;90.74
21824;BME280;11074;48.596;9.238;2023-09-19T02:41:17;97968.16;;;19.07;91.07
21824;BME280;11074;48.596;9.238;2023-09-19T02:43:43;97956.34;;;19.03;90.98
21824;BME280;11074;48.596;9.238;2023-09-19T02:46:08;97955.72;;;19.06;91.66
21824;BME280;11074;48.596;9.238;2023-09-19T02:48:34;97966.28;;;19.16;91.31
21824;BME280;11074;48.596;9.238;2023-09-19T02:51:01;97964.88;;;18.88;91.72
21824;BME280;11074;48.596;9.238;2023-09-19T02:53:28;97965.97;;;18.87;91.92
21824;BME280;11074;48.596;9.238;2023-09-19T02:55:56;97963.03;;;18.97;91.63
21824;BME280;11074;48.596;9.238;2023-09-19T02:58:22;97966.94;;;19.13;91.33
21824;BME280;11074;48.596;9.238;2023-09-19T03:00:49;97975.25;;;19.25;90.89
21824;BME280;11074;48.596;9.238;2023-09-19T03:03:17;97975.25;;;19.25;89.93
21824;BME280;11074;48.596;9.238;2023-09-19T03:05:43;97968.31;;;19.11;89.66
21824;BME280;11074;48.596;9.238;2023-09-19T03:08:13;97967.09;;;19.17;90.01
21824;BME280;11074;48.596;9.238;2023-09-19T03:10:40;97979.75;;;18.99;90.13
21824;BME280;11074;48.596;9.238;2023-09-19T03:13:06;97975.38;;;18.90;90.12
21824;BME280;11074;48.596;9.238;2023-09-19T03:15:35;97974.91;;;18.88;90.76
21824;BME280;11074;48.596;9.238;2023-09-19T03:18:04;97981.13;;;18.88;90.81
21824;BME280;11074;48.596;9.238;2023-09-19T03:20:31;97977.03;;;18.99;90.87
21824;BME280;11074;48.596;9.238;2023-09-19T03:22:57;97984.44;;;19.07;90.68
21824;BME280;11074;48.596;9.238;2023-09-19T03:25:23;97974.47;;;18.94;90.64
21824;BME280;11074;48.596;9.238;2023-09-19T03:27:50;97986.41;;;18.93;90.74
21824;BME280;11074;48.596;9.238;2023-09-19T03:30:15;97975.91;;;19.00;91.42
21824;BME280;11074;48.596;9.238;2023-09-19T03:32:48;97964.78;;;19.02;90.23
21824;BME280;11074;48.596;9.238;2023-09-19T03:35:16;97975.91;;;19.00;90.85
21824;BME280;11074;48.596;9.238;2023-09-19T03:37:43;97967.78;;;19.00;91.35
21824;BME280;11074;48.596;9.238;2023-09-19T03:40:12;97981.75;;;19.16;91.05
21824;BME280;11074;48.596;9.238;2023-09-19T03:42:42;97986.72;;;18.92;90.76
21824;BME280;11074;48.596;9.238;2023-09-19T03:45:08;97984.19;;;18.95;91.59
21824;BME280;11074;48.596;9.238;2023-09-19T03:47:38;97982.53;;;19.08;91.47
21824;BME280;11074;48.596;9.238;2023-09-19T03:50:06;97982.34;;;19.04;91.33
21824;BME280;11074;48.596;9.238;2023-09-19T03:52:34;97969.06;;;18.94;91.18
21824;BME280;11074;48.596;9.238;2023-09-19T03:54:59;97986.47;;;19.02;91.30
21824;BME280;11074;48.596;9.238;2023-09-19T03:57:26;97988.50;;;18.96;91.44
21824;BME280;11074;48.596;9.238;2023-09-19T03:59:52;97977.41;;;19.06;90.92
21824;BME280;11074;48.596;9.238;2023-09-19T04:02:20;97986.47;;;19.02;91.63
21824;BME280;11074;48.596;9.238;2023-09-19T04:04:50;97986.66;;;19.14;91.47
21824;BME280;11074;48.596;9.238;2023-09-19T04:07:16;97979.81;;;19.16;91.15
21824;BME280;11074;48.596;9.238;2023-09-19T04:09:42;97976.97;;;19.13;91.18
21824;BME280;11074;48.596;9.238;2023-09-19T04:12:07;97977.41;;;19.06;91.21
21824;BME280;11074;48.596;9.238;2023-09-19T04:14:37;97989.13;;;18.93;91.31
21824;BME280;11074;48.596;9.238;2023-09-19T04:17:04;97989.38;;;18.83;91.92
21824;BME280;11074;48.596;9.238;2023-09-19T04:19:31;97987.41;;;18.75;92.62
21824;BME280;11074;48.596;9.238;2023-09-19T04:21:57;97977.00;;;18.68;92.51
21824;BME280;11074;48.596;9.238;2023-09-19T04:24:22;97980.56;;;18.33;93.36
21824;BME280;11074;48.596;9.238;2023-09-19T04:26:48;97983.50;;;18.45;94.10
21824;BME280;11074;48.596;9.238;2023-09-19T04:29:14;97985.88;;;18.60;93.78
21824;BME280;11074;48.596;9.238;2023-09-19T04:31:40;97988.13;;;18.45;93.91
21824;BME280;11074;48.596;9.238;2023-09-19T04:34:06;97993.25;;;18.68;93.96
21824;BME280;11074;48.596;9.238;2023-09-19T04:36:34;97986.34;;;18.85;93.83
21824;BME280;11074;48.596;9.238;2023-09-19T04:39:03;97980.66;;;18.86;92.98
21824;BME280;11074;48.596;9.238;2023-09-19T04:41:31;97977.56;;;18.79;91.66
21824;BME280;11074;48.596;9.238;2023-09-19T04:43:57;97990.19;;;18.84;91.86
21824;BME280;11074;48.596;9.238;2023-09-19T04:46:22;97996.28;;;18.89;91.65
21824;BME280;11074;48.596;9.238;2023-09-19T04:48:48;97984.72;;;18.75;91.55
21824;BME280;11074;48.596;9.238;2023-09-19T04:51:13;97981.47;;;18.64;91.13
21824;BME280;11074;48.596;9.238;2023-09-19T04:53:40;97971.69;;;18.55;92.05
21824;BME280;11074;48.596;9.238;2023-09-19T04:56:06;97989.72;;;18.46;92.92
21824;BME280;11074;48.596;9.238;2023-09-19T04:58:33;97990.94;;;18.17;93.57
21824;BME280;11074;48.596;9.238;2023-09-19T05:00:59;97997.13;;;17.82;95.46
21824;BME280;11074;48.596;9.238;2023-09-19T05:03:25;98006.50;;;17.44;98.63
21824;BME280;11074;48.596;9.238;2023-09-19T05:05:50;98003.91;;;17.39;99.15
21824;BME280;11074;48.596;9.238;2023-09-19T05:08:16;97995.69;;;17.30;99.87
21824;BME280;11074;48.596;9.238;2023-09-19T05:10:42;97997.47;;;17.08;100.00
21824;BME280;11074;48.596;9.238;2023-09-19T05:13:07;98004.09;;;17.15;100.00
21824;BME280;11074;48.596;9.238;2023-09-19T05:15:34;98013.09;;;17.38;100.00
21824;BME280;11074;48.596;9.238;2023-09-19T05:18:01;98005.97;;;17.15;100.00
21824;BME280;11074;48.596;9.238;2023-09-19T05:20:26;98009.72;;;17.32;100.00
21824;BME280;11074;48.596;9.238;2023-09-19T05:23:12;98020.31;;;17.29;100.00
21824;BME280;11074;48.596;9.238;2023-09-19T05:25:40;98020.53;;;17.32;100.00
21824;BME280;11074;48.596;9.238;2023-09-19T05:28:07;98022.34;;;17.37;100.00
21824;BME280;11074;48.596;9.238;2023-09-19T05:30:33;98026.53;;;17.29;100.00
21824;BME280;11074;48.596;9.238;2023-09-19T05:33:02;98022.94;;;17.34;100.00
21824;BME280;11074;48.596;9.238;2023-09-19T05:35:30;98032.53;;;17.26;100.00
21824;BME280;11074;48.596;9.238;2023-09-19T05:37:57;98039.91;;;17.53;100.00
21824;BME280;11074;48.596;9.238;2023-09-19T05:40:25;98030.56;;;17.59;99.09
21824;BME280;11074;48.596;9.238;2023-09-19T05:42:56;98032.56;;;17.81;98.15
21824;BME280;11074;48.596;9.238;2023-09-19T05:45:29;98034.50;;;17.80;97.93
21824;BME280;11074;48.596;9.238;2023-09-19T05:48:09;98029.84;;;17.81;96.94
21824;BME280;11074;48.596;9.238;2023-09-19T05:50:35;98032.50;;;17.72;97.78
21824;BME280;11074;48.596;9.238;2023-09-19T05:53:01;98057.22;;;17.79;98.04
21824;BME280;11074;48.596;9.238;2023-09-19T05:55:27;98061.59;;;17.75;97.74
21824;BME280;11074;48.596;9.238;2023-09-19T05:57:54;98074.75;;;17.82;97.83
21824;BME280;11074;48.596;9.238;2023-09-19T06:00:23;98071.22;;;17.81;97.75
21824;BME280;11074;48.596;9.238;2023-09-19T06:02:54;98078.44;;;17.86;98.39
21824;BME280;11074;48.596;9.238;2023-09-19T06:05:21;98090.59;;;17.88;97.89
21824;BME280;11074;48.596;9.238;2023-09-19T06:07:46;98087.16;;;17.96;97.67
21824;BME280;11074;48.596;9.238;2023-09-19T06:10:13;98092.97;;;18.03;96.99
21824;BME280;11074;48.596;9.238;2023-09-19T06:12:41;98099.19;;;18.04;98.27
21824;BME280;11074;48.596;9.238;2023-09-19T06:15:10;98091.06;;;18.04;99.31
21824;BME280;11074;48.596;9.238;2023-09-19T06:17:47;98085.25;;;17.97;99.98
21824;BME280;11074;48.596;9.238;2023-09-19T06:20:14;98089.34;;;17.94;100.00
21824;BME280;11074;48.596;9.238;2023-09-19T06:22:45;98100.19;;;17.94;100.00
21824;BME280;11074;48.596;9.238;2023-09-19T06:25:13;98104.09;;;18.02;100.00
21824;BME280;11074;48.596;9.238;2023-09-19T06:27:45;98099.47;;;18.02;98.52
21824;BME280;11074;48.596;9.238;2023-09-19T06:30:11;98109.78;;;18.28;97.66
21824;BME280;11074;48.596;9.238;2023-09-19T06:32:37;98104.38;;;18.28;97.02
21824;BME280;11074;48.596;9.238;2023-09-19T06:35:04;98091.72;;;18.37;96.04
21824;BME280;11074;48.596;9.238;2023-09-19T06:37:32;98097.00;;;18.42;95.33
21824;BME280;11074;48.596;9.238;2023-09-19T06:40:00;98108.88;;;18.18;96.11
21824;BME280;11074;48.596;9.238;2023-09-19T06:42:25;98104.78;;;18.07;97.11
21824;BME280;11074;48.596;9.238;2023-09-19T06:44:53;98104.38;;;18.14;97.16
21824;BME280;11074;48.596;9.238;2023-09-19T06:47:19;98115.91;;;18.06;97.24
21824;BME280;11074;48.596;9.238;2023-09-19T06:49:45;98113.00;;;18.16;97.31
21824;BME280;11074;48.596;9.238;2023-09-19T06:52:11;98120.53;;;18.05;97.83
21824;BME280;11074;48.596;9.238;2023-09-19T06:54:37;98123.72;;;18.07;98.00
21824;BME280;11074;48.596;9.238;2023-09-19T06:57:05;98127.72;;;17.96;99.42
21824;BME280;11074;48.596;9.238;2023-09-19T06:59:35;98136.94;;;17.82;100.00
21824;BME280;11074;48.596;9.238;2023-09-19T07:02:01;98128.72;;;17.73;100.00
21824;BME280;11074;48.596;9.238;2023-09-19T07:04:27;98145.38;;;17.80;100.00
21824;BME280;11074;48.596;9.238;2023-09-19T07:06:55;98132.34;;;17.82;100.00
21824;BME280;11074;48.596;9.238;2023-09-19T07:09:23;98146.94;;;17.68;100.00
21824;BME280;11074;48.596;9.238;2023-09-19T07:11:53;98143.06;;;17.74;100.00
21824;BME280;11074;48.596;9.238;2023-09-19T07:14:18;98146.47;;;17.79;100.00
21824;BME280;11074;48.596;9.238;2023-09-19T07:16:44;98135.31;;;17.67;100.00
21824;BME280;11074;48.596;9.238;2023-09-19T07:19:10;98143.16;;;17.82;100.00
21824;BME280;11074;48.596;9.238;2023-09-19T07:21:36;98142.03;;;17.83;100.00
21824;BME280;11074;48.596;9.238;2023-09-19T07:24:04;98146.97;;;17.95;100.00
21824;BME280;11074;48.596;9.238;2023-09-19T07:26:30;98143.16;;;17.82;100.00
21824;BME280;11074;48.596;9.238;2023-09-19T07:28:56;98145.06;;;17.82;100.00
21824;BME280;11074;48.596;9.238;2023-09-19T07:31:23;98147.56;;;17.78;100.00
21824;BME280;11074;48.596;9.238;2023-09-19T07:33:49;98154.50;;;17.98;100.00
21824;BME280;11074;48.596;9.238;2023-09-19T07:36:14;98155.19;;;18.03;100.00
21824;BME280;11074;48.596;9.238;2023-09-19T07:38:41;98161.00;;;18.10;100.00
21824;BME280;11074;48.596;9.238;2023-09-19T07:41:08;98170.84;;;18.20;100.00
21824;BME280;11074;48.596;9.238;2023-09-19T07:43:37;98159.00;;;18.30;100.00
21824;BME280;11074;48.596;9.238;2023-09-19T07:46:08;98169.63;;;18.40;100.00
21824;BME280;11074;48.596;9.238;2023-09-19T07:48:38;98174.25;;;18.53;99.67
21824;BME280;11074;48.596;9.238;2023-09-19T07:51:08;98172.06;;;18.55;99.13
21824;BME280;11074;48.596;9.238;2023-09-19T07:53:37;98164.09;;;18.72;98.40
21824;BME280;11074;48.596;9.238;2023-09-19T07:56:08;98176.44;;;19.00;96.94
21824;BME280;11074;48.596;9.238;2023-09-19T07:58:34;98176.66;;;19.26;95.51
21824;BME280;11074;48.596;9.238;2023-09-19T08:01:08;98179.22;;;19.45;93.75
21824;BME280;11074;48.596;9.238;2023-09-19T08:03:36;98177.78;;;19.47;93.03
21824;BME280;11074;48.596;9.238;2023-09-19T08:06:10;98186.75;;;19.48;93.24
21824;BME280;11074;48.596;9.238;2023-09-19T08:08:36;98186.00;;;19.56;92.95
21824;BME280;11074;48.596;9.238;2023-09-19T08:11:06;98183.03;;;19.66;92.31
21824;BME280;11074;48.596;9.238;2023-09-19T08:13:41;98183.97;;;19.70;91.68
21824;BME280;11074;48.596;9.238;2023-09-19T08:16:12;98186.97;;;19.60;92.18
21824;BME280;11074;48.596;9.238;2023-09-19T08:18:40;98193.50;;;19.59;92.28
21824;BME280;11074;48.596;9.238;2023-09-19T08:21:07;98192.25;;;19.65;91.80
21824;BME280;11074;48.596;9.238;2023-09-19T08:23:37;98188.38;;;19.79;89.80
21824;BME280;11074;48.596;9.238;2023-09-19T08:26:04;98198.44;;;19.57;91.01
21824;BME280;11074;48.596;9.238;2023-09-19T08:28:32;98194.34;;;19.68;90.16
21824;BME280;11074;48.596;9.238;2023-09-19T08:31:04;98199.78;;;19.68;89.27
21824;BME280;11074;48.596;9.238;2023-09-19T08:33:35;98204.66;;;19.88;89.17
21824;BME280;11074;48.596;9.238;2023-09-19T08:36:06;98204.19;;;19.86;86.05
21824;BME280;11074;48.596;9.238;2023-09-19T08:38:34;98204.59;;;20.02;87.07
21824;BME280;11074;48.596;9.238;2023-09-19T08:41:05;98200.91;;;19.98;86.13
21824;BME280;11074;48.596;9.238;2023-09-19T08:43:32;98188.38;;;19.88;86.55
21824;BME280;11074;48.596;9.238;2023-09-19T08:48:37;98210.91;;;20.19;85.16
21824;BME280;11074;48.596;9.238;2023-09-19T08:51:11;98221.66;;;20.24;85.34
21824;BME280;11074;48.596;9.238;2023-09-19T08:54:04;98216.53;;;19.92;82.84
21824;BME280;11074;48.596;9.238;2023-09-19T08:56:33;98218.34;;;19.74;85.76
21824;BME280;11074;48.596;9.238;2023-09-19T08:59:06;98216.94;;;19.85;86.02
21824;BME280;11074;48.596;9.238;2023-09-19T09:01:37;98218.44;;;19.91;86.64
21824;BME280;11074;48.596;9.238;2023-09-19T09:04:09;98214.22;;;19.77;85.34
21824;BME280;11074;48.596;9.238;2023-09-19T09:06:38;98211.31;;;20.04;86.50
21824;BME280;11074;48.596;9.238;2023-09-19T09:09:09;98213.41;;;20.07;85.58
21824;BME280;11074;48.596;9.238;2023-09-19T09:11:35;98216.09;;;20.07;83.84
21824;BME280;11074;48.596;9.238;2023-09-19T09:14:06;98215.72;;;20.22;84.54
21824;BME280;11074;48.596;9.238;2023-09-19T09:16:35;98219.69;;;20.16;84.01
21824;BME280;11074;48.596;9.238;2023-09-19T09:19:01;98214.59;;;20.23;82.76
21824;BME280;11074;48.596;9.238;2023-09-19T09:21:27;98222.84;;;20.40;80.83
21824;BME280;11074;48.596;9.238;2023-09-19T09:23:54;98219.00;;;20.41;82.01
21824;BME280;11074;48.596;9.238;2023-09-19T09:26:49;98211.69;;;20.50;80.20
21824;BME280;11074;48.596;9.238;2023-09-19T09:29:15;98212.00;;;20.58;81.41
21824;BME280;11074;48.596;9.238;2023-09-19T09:31:41;98220.50;;;20.56;79.50
21824;BME280;11074;48.596;9.238;2023-09-19T09:34:08;98224.38;;;20.72;77.89
21824;BME280;11074;48.596;9.238;2023-09-19T09:36:39;98233.75;;;20.58;76.05
21824;BME280;11074;48.596;9.238;2023-09-19T09:39:07;98212.50;;;20.20;75.68
21824;BME280;11074;48.596;9.238;2023-09-19T09:41:50;98237.44;;;20.22;74.01
21824;BME280;11074;48.596;9.238;2023-09-19T09:44:18;98239.16;;;20.18;73.84
21824;BME280;11074;48.596;9.238;2023-09-19T09:46:48;98231.50;;;20.20;73.24
21824;BME280;11074;48.596;9.238;2023-09-19T09:49:25;98231.19;;;20.22;72.07
21824;BME280;11074;48.596;9.238;2023-09-19T09:52:01;98237.53;;;20.09;71.89
21824;BME280;11074;48.596;9.238;2023-09-19T09:54:32;98229.28;;;20.22;73.31
21824;BME280;11074;48.596;9.238;2023-09-19T09:57:10;98226.59;;;20.22;70.62
21824;BME280;11074;48.596;9.238;2023-09-19T09:59:53;98232.56;;;20.33;72.58
21824;BME280;11074;48.596;9.238;2023-09-19T10:02:30;98228.72;;;20.34;70.56
21824;BME280;11074;48.596;9.238;2023-09-19T10:05:20;98226.84;;;20.43;73.53
21824;BME280;11074;48.596;9.238;2023-09-19T10:07:50;98232.06;;;20.31;69.19
21824;BME280;11074;48.596;9.238;2023-09-19T10:10:34;98228.41;;;20.35;70.33
21824;BME280;11074;48.596;9.238;2023-09-19T10:13:11;98228.44;;;20.44;70.46
21824;BME280;11074;48.596;9.238;2023-09-19T10:15:49;98226.66;;;20.39;68.50
21824;BME280;11074;48.596;9.238;2023-09-19T10:18:23;98232.16;;;20.57;70.49
21824;BME280;11074;48.596;9.238;2023-09-19T10:20:49;98227.88;;;20.64;69.86
21824;BME280;11074;48.596;9.238;2023-09-19T10:23:19;98235.09;;;20.77;69.15
21824;BME280;11074;48.596;9.238;2023-09-19T10:25:50;98228.81;;;20.68;69.17
21824;BME280;11074;48.596;9.238;2023-09-19T10:28:19;98226.25;;;20.63;68.04
21824;BME280;11074;48.596;9.238;2023-09-19T10:30:50;98221.16;;;20.62;67.63
21824;BME280;11074;48.596;9.238;2023-09-19T10:33:20;98215.09;;;20.65;67.17
21824;BME280;11074;48.596;9.238;2023-09-19T10:35:49;98212.34;;;20.56;67.60
21824;BME280;11074;48.596;9.238;2023-09-19T10:38:24;98209.66;;;20.65;68.38
21824;BME280;11074;48.596;9.238;2023-09-19T10:40:53;98213.00;;;20.62;68.18
21824;BME280;11074;48.596;9.238;2023-09-19T10:43:21;98218.13;;;20.72;67.31
21824;BME280;11074;48.596;9.238;2023-09-19T10:45:49;98216.16;;;20.55;67.08
21824;BME280;11074;48.596;9.238;2023-09-19T10:48:18;98219.81;;;20.42;66.29
21824;BME280;11074;48.596;9.238;2023-09-19T10:50:53;98215.50;;;20.41;67.27
21824;BME280;11074;48.596;9.238;2023-09-19T10:53:27;98211.25;;;20.74;70.17
21824;BME280;11074;48.596;9.238;2023-09-19T10:55:59;98197.03;;;20.69;68.36
21824;BME280;11074;48.596;9.238;2023-09-19T10:58:31;98215.31;;;20.94;69.10
21824;BME280;11074;48.596;9.238;2023-09-19T11:01:00;98199.31;;;20.92;64.69
21824;BME280;11074;48.596;9.238;2023-09-19T11:03:31;98189.56;;;20.91;68.08
21824;BME280;11074;48.596;9.238;2023-09-19T11:06:17;98195.19;;;21.12;68.87
21824;BME280;11074;48.596;9.238;2023-09-19T11:09:02;98199.38;;;21.18;67.97
21824;BME280;11074;48.596;9.238;2023-09-19T11:11:45;98193.91;;;21.09;64.98
21824;BME280;11074;48.596;9.238;2023-09-19T11:20:20;98195.84;;;21.09;67.54
21824;BME280;11074;48.596;9.238;2023-09-19T11:30:37;98179.19;;;21.19;63.15
21824;BME280;11074;48.596;9.238;2023-09-19T11:33:26;98175.84;;;21.31;66.60
21824;BME280;11074;48.596;9.238;2023-09-19T11:36:16;98175.84;;;21.39;65.69
21824;BME280;11074;48.596;9.238;2023-09-19T11:43:49;98168.56;;;21.69;61.56
21824;BME280;11074;48.596;9.238;2023-09-19T11:46:17;98169.81;;;21.89;65.37
21824;BME280;11074;48.596;9.238;2023-09-19T11:48:49;98159.66;;;22.06;63.51
21824;BME280;11074;48.596;9.238;2023-09-19T11:51:20;98173.06;;;22.20;60.38
21824;BME280;11074;48.596;9.238;2023-09-19T11:53:58;98158.06;;;22.43;59.62
21824;BME280;11074;48.596;9.238;2023-09-19T11:56:28;98157.88;;;22.48;58.17
21824;BME280;11074;48.596;9.238;2023-09-19T11:58:55;98159.78;;;22.48;61.26
21824;BME280;11074;48.596;9.238;2023-09-19T12:01:32;98161.91;;;22.42;59.56
21824;BME280;11074;48.596;9.238;2023-09-19T12:04:02;98163.50;;;22.14;60.85
21824;BME280;11074;48.596;9.238;2023-09-19T12:06:30;98148.78;;;22.06;62.53
21824;BME280;11074;48.596;9.238;2023-09-19T12:08:58;98164.59;;;22.21;62.11
21824;BME280;11074;48.596;9.238;2023-09-19T12:11:30;98147.72;;;22.28;61.31
21824;BME280;11074;48.596;9.238;2023-09-19T12:13:59;98152.25;;;22.15;58.44
21824;BME280;11074;48.596;9.238;2023-09-19T12:16:29;98153.50;;;22.26;59.31
21824;BME280;11074;48.596;9.238;2023-09-19T12:19:18;98147.16;;;22.43;57.78
21824;BME280;11074;48.596;9.238;2023-09-19T12:21:59;98135.00;;;22.70;60.40
21824;BME280;11074;48.596;9.238;2023-09-19T12:24:29;98124.50;;;22.80;59.93
21824;BME280;11074;48.596;9.238;2023-09-19T12:27:01;98133.00;;;23.00;59.99
21824;BME280;11074;48.596;9.238;2023-09-19T12:29:30;98118.47;;;23.08;57.66
21824;BME280;11074;48.596;9.238;2023-09-19T12:31:58;98118.34;;;23.25;57.44
21824;BME280;11074;48.596;9.238;2023-09-19T12:34:29;98119.53;;;23.36;57.82
21824;BME280;11074;48.596;9.238;2023-09-19T12:37:13;98126.50;;;23.45;56.76
21824;BME280;11074;48.596;9.238;2023-09-19T12:39:51;98120.31;;;23.69;56.01
21824;BME280;11074;48.596;9.238;2023-09-19T12:42:26;98116.78;;;23.69;56.07
21824;BME280;11074;48.596;9.238;2023-09-19T12:44:58;98108.13;;;23.67;55.32
21824;BME280;11074;48.596;9.238;2023-09-19T12:47:28;98124.22;;;23.92;56.37
21824;BME280;11074;48.596;9.238;2023-09-19T12:50:14;98120.56;;;23.76;55.00
21824;BME280;11074;48.596;9.238;2023-09-19T12:53:01;98113.00;;;23.61;54.82
21824;BME280;11074;48.596;9.238;2023-09-19T12:55:29;98117.78;;;23.64;53.55
21824;BME280;11074;48.596;9.238;2023-09-19T12:58:13;98111.78;;;23.71;54.75
21824;BME280;11074;48.596;9.238;2023-09-19T13:00:45;98102.56;;;23.75;55.61
21824;BME280;11074;48.596;9.238;2023-09-19T13:06:00;98102.75;;;23.46;55.80
21824;BME280;11074;48.596;9.238;2023-09-19T13:08:34;98102.22;;;23.32;54.34
21824;BME280;11074;48.596;9.238;2023-09-19T13:13:37;98093.44;;;22.93;55.96
21824;BME280;11074;48.596;9.238;2023-09-19T13:16:04;98101.34;;;22.86;56.18
21824;BME280;11074;48.596;9.238;2023-09-19T13:18:43;98102.94;;;22.87;56.10
21824;BME280;11074;48.596;9.238;2023-09-19T13:21:12;98105.47;;;22.92;56.79
21824;BME280;11074;48.596;9.238;2023-09-19T13:23:50;98100.56;;;22.86;59.34
21824;BME280;11074;48.596;9.238;2023-09-19T13:26:15;98097.38;;;23.17;56.80
21824;BME280;11074;48.596;9.238;2023-09-19T13:28:41;98099.34;;;23.49;56.44
21824;BME280;11074;48.596;9.238;2023-09-19T13:31:09;98098.28;;;23.86;54.63
21824;BME280;11074;48.596;9.238;2023-09-19T13:33:46;98099.13;;;24.11;54.13
21824;BME280;11074;48.596;9.238;2023-09-19T13:36:13;98091.91;;;24.31;54.00
21824;BME280;11074;48.596;9.238;2023-09-19T13:38:42;98098.06;;;24.40;53.20
21824;BME280;11074;48.596;9.238;2023-09-19T13:41:12;98088.94;;;24.36;53.24
21824;BME280;11074;48.596;9.238;2023-09-19T13:43:39;98103.50;;;24.52;54.26
21824;BME280;11074;48.596;9.238;2023-09-19T13:46:06;98089.75;;;24.36;52.41
21824;BME280;11074;48.596;9.238;2023-09-19T13:48:37;98089.50;;;24.41;53.83
21824;BME280;11074;48.596;9.238;2023-09-19T13:51:04;98085.53;;;24.39;53.80